PWSweather.com
Personal Weather Stations
Station Observations
KPAAUBUR15
Lake Wynonah, Auburn, PA 17922

Lake WynonahAuburn, PA 17922

Lat: 40.582723, Lon: -76.193106

Elevation: 724

Station Type: Davis Vantage Pro2

http://WynonahWeather.com

High Low Average
Temperature 79.8°F26.6°F 66.4°F19.1°F 71.0°F21.7°F
Dew Point 73.9°F23.3°F 66.4°F19.1°F 69.7°F20.9°F
Winds 3.5 mph -5.6 mph - Calm Calm 0.2 mph 0.3 mph
Wind Gusts 8.1 mph13.0 mph -- 0.9 mph1.4 mph
Humidity 100% 80% 96%
Pressure 29.88 in1011.90 in 29.70 in1005.80 in -
Precipitation 0.24 in6.10 in - -
Hour Temp Dew Point Humidity Winds Wind Gusts Pressure Precip Precip Rate Daily Precip Total
12:00 AM 67.9°F19.9°C 67.9°F19.9°C 100% Calm Calm -- 29.88 in1011.9 mb - 0.00 in0.0 mm 0.00 in0.0 mm
12:05 AM 68.0°F20.0°C 68.0°F20.0°C 100% Calm Calm -- 29.87 in1011.5 mb - 0.00 in0.0 mm 0.00 in0.0 mm
12:10 AM 67.9°F19.9°C 67.9°F19.9°C 100% Calm Calm 2.3 mph3.7 kmh 29.87 in1011.5 mb - 0.00 in0.0 mm 0.00 in0.0 mm
12:15 AM 67.8°F19.9°C 67.8°F19.9°C 100% Calm Calm 2.3 mph3.7 kmh 29.87 in1011.5 mb - 0.00 in0.0 mm 0.00 in0.0 mm
12:20 AM 67.6°F19.8°C 67.6°F19.8°C 100% Calm Calm 2.3 mph3.7 kmh 29.87 in1011.5 mb - 0.00 in0.0 mm 0.00 in0.0 mm
12:25 AM 67.5°F19.7°C 67.5°F19.7°C 100% Calm Calm -- 29.87 in1011.5 mb - 0.00 in0.0 mm 0.00 in0.0 mm
12:30 AM 67.4°F19.7°C 67.4°F19.7°C 100% Calm Calm -- 29.87 in1011.5 mb - 0.00 in0.0 mm 0.00 in0.0 mm
12:35 AM 67.3°F19.6°C 67.3°F19.6°C 100% Calm Calm -- 29.87 in1011.5 mb - 0.00 in0.0 mm 0.00 in0.0 mm
12:40 AM 67.3°F19.6°C 67.3°F19.6°C 100% Calm Calm -- 29.87 in1011.5 mb - 0.00 in0.0 mm 0.00 in0.0 mm
12:45 AM 67.2°F19.6°C 67.2°F19.6°C 100% Calm Calm -- 29.87 in1011.5 mb - 0.00 in0.0 mm 0.00 in0.0 mm
12:50 AM 67.1°F19.5°C 67.1°F19.5°C 100% Calm Calm -- 29.87 in1011.5 mb - 0.00 in0.0 mm 0.00 in0.0 mm
12:55 AM 67.1°F19.5°C 67.1°F19.5°C 100% Calm Calm -- 29.87 in1011.5 mb - 0.00 in0.0 mm 0.00 in0.0 mm
01:00 AM 67.1°F19.5°C 67.1°F19.5°C 100% Calm Calm -- 29.87 in1011.5 mb - 0.00 in0.0 mm 0.00 in0.0 mm
01:05 AM 67.2°F19.6°C 67.2°F19.6°C 100% Calm Calm -- 29.87 in1011.5 mb - 0.00 in0.0 mm 0.00 in0.0 mm
01:10 AM 67.2°F19.6°C 67.2°F19.6°C 100% Calm Calm -- 29.87 in1011.5 mb - 0.00 in0.0 mm 0.00 in0.0 mm
01:15 AM 67.2°F19.6°C 67.2°F19.6°C 100% Calm Calm -- 29.87 in1011.5 mb - 0.00 in0.0 mm 0.00 in0.0 mm
01:20 AM 67.2°F19.6°C 67.2°F19.6°C 100% Calm Calm -- 29.87 in1011.5 mb - 0.00 in0.0 mm 0.00 in0.0 mm
01:25 AM 67.1°F19.5°C 67.1°F19.5°C 100% Calm Calm -- 29.87 in1011.5 mb - 0.00 in0.0 mm 0.00 in0.0 mm
01:30 AM 67.1°F19.5°C 67.1°F19.5°C 100% Calm Calm -- 29.87 in1011.5 mb - 0.00 in0.0 mm 0.00 in0.0 mm
01:35 AM 67.1°F19.5°C 67.1°F19.5°C 100% Calm Calm -- 29.87 in1011.5 mb - 0.00 in0.0 mm 0.00 in0.0 mm
01:40 AM 67.0°F19.4°C 67.0°F19.4°C 100% Calm Calm -- 29.86 in1011.2 mb - 0.00 in0.0 mm 0.00 in0.0 mm
01:45 AM 67.0°F19.4°C 67.0°F19.4°C 100% Calm Calm -- 29.86 in1011.2 mb - 0.00 in0.0 mm 0.00 in0.0 mm
01:50 AM 66.9°F19.4°C 66.9°F19.4°C 100% Calm Calm -- 29.86 in1011.2 mb - 0.00 in0.0 mm 0.00 in0.0 mm
01:55 AM 66.9°F19.4°C 66.9°F19.4°C 100% Calm Calm 1.2 mph1.9 kmh 29.86 in1011.2 mb - 0.00 in0.0 mm 0.00 in0.0 mm
02:00 AM 67.0°F19.4°C 67.0°F19.4°C 100% Calm Calm -- 29.86 in1011.2 mb - 0.00 in0.0 mm 0.00 in0.0 mm
02:05 AM 67.0°F19.4°C 67.0°F19.4°C 100% Calm Calm -- 29.86 in1011.2 mb - 0.00 in0.0 mm 0.00 in0.0 mm
02:10 AM 67.0°F19.4°C 67.0°F19.4°C 100% Calm Calm -- 29.85 in1010.8 mb - 0.00 in0.0 mm 0.00 in0.0 mm
02:15 AM 67.0°F19.4°C 67.0°F19.4°C 100% Calm Calm -- 29.86 in1011.2 mb - 0.00 in0.0 mm 0.00 in0.0 mm
02:20 AM 67.0°F19.4°C 67.0°F19.4°C 100% Calm Calm -- 29.86 in1011.2 mb - 0.00 in0.0 mm 0.00 in0.0 mm
02:25 AM 67.0°F19.4°C 67.0°F19.4°C 100% Calm Calm -- 29.86 in1011.2 mb - 0.00 in0.0 mm 0.00 in0.0 mm
02:30 AM 67.0°F19.4°C 67.0°F19.4°C 100% Calm Calm -- 29.86 in1011.2 mb - 0.00 in0.0 mm 0.00 in0.0 mm
02:35 AM 67.0°F19.4°C 67.0°F19.4°C 100% Calm Calm -- 29.86 in1011.2 mb - 0.00 in0.0 mm 0.00 in0.0 mm
02:40 AM 67.0°F19.4°C 67.0°F19.4°C 100% Calm Calm -- 29.86 in1011.2 mb - 0.00 in0.0 mm 0.00 in0.0 mm
02:45 AM 67.1°F19.5°C 67.1°F19.5°C 100% Calm Calm -- 29.86 in1011.2 mb - 0.00 in0.0 mm 0.00 in0.0 mm
02:50 AM 67.1°F19.5°C 67.1°F19.5°C 100% Calm Calm -- 29.86 in1011.2 mb - 0.00 in0.0 mm 0.00 in0.0 mm
02:55 AM 67.1°F19.5°C 67.1°F19.5°C 100% Calm Calm -- 29.85 in1010.8 mb - 0.00 in0.0 mm 0.00 in0.0 mm
03:00 AM 67.1°F19.5°C 67.1°F19.5°C 100% Calm Calm -- 29.85 in1010.8 mb - 0.00 in0.0 mm 0.00 in0.0 mm
03:05 AM 67.0°F19.4°C 67.0°F19.4°C 100% Calm Calm -- 29.85 in1010.8 mb - 0.00 in0.0 mm 0.00 in0.0 mm
03:10 AM 67.0°F19.4°C 67.0°F19.4°C 100% Calm Calm -- 29.85 in1010.8 mb - 0.00 in0.0 mm 0.00 in0.0 mm
03:15 AM 67.0°F19.4°C 67.0°F19.4°C 100% Calm Calm -- 29.85 in1010.8 mb - 0.00 in0.0 mm 0.00 in0.0 mm
03:20 AM 66.9°F19.4°C 66.9°F19.4°C 100% Calm Calm -- 29.84 in1010.5 mb - 0.00 in0.0 mm 0.00 in0.0 mm
03:25 AM 66.9°F19.4°C 66.9°F19.4°C 100% Calm Calm -- 29.84 in1010.5 mb - 0.00 in0.0 mm 0.00 in0.0 mm
03:30 AM 66.8°F19.3°C 66.8°F19.3°C 100% Calm Calm -- 29.84 in1010.5 mb - 0.00 in0.0 mm 0.00 in0.0 mm
03:35 AM 66.8°F19.3°C 66.8°F19.3°C 100% Calm Calm 2.3 mph3.7 kmh 29.84 in1010.5 mb - 0.00 in0.0 mm 0.00 in0.0 mm
03:40 AM 66.9°F19.4°C 66.9°F19.4°C 100% Calm Calm -- 29.85 in1010.8 mb - 0.00 in0.0 mm 0.00 in0.0 mm
03:45 AM 66.8°F19.3°C 66.8°F19.3°C 100% Calm Calm -- 29.84 in1010.5 mb - 0.00 in0.0 mm 0.00 in0.0 mm
03:50 AM 66.8°F19.3°C 66.8°F19.3°C 100% Calm Calm -- 29.84 in1010.5 mb - 0.00 in0.0 mm 0.00 in0.0 mm
03:55 AM 66.8°F19.3°C 66.8°F19.3°C 100% Calm Calm -- 29.84 in1010.5 mb - 0.00 in0.0 mm 0.00 in0.0 mm
04:00 AM 66.8°F19.3°C 66.8°F19.3°C 100% Calm Calm -- 29.84 in1010.5 mb - 0.00 in0.0 mm 0.00 in0.0 mm
04:05 AM 66.8°F19.3°C 66.8°F19.3°C 100% Calm Calm -- 29.84 in1010.5 mb - 0.00 in0.0 mm 0.00 in0.0 mm
04:10 AM 66.8°F19.3°C 66.8°F19.3°C 100% Calm Calm -- 29.84 in1010.5 mb - 0.00 in0.0 mm 0.00 in0.0 mm
04:15 AM 66.7°F19.3°C 66.7°F19.3°C 100% Calm Calm -- 29.84 in1010.5 mb - 0.00 in0.0 mm 0.00 in0.0 mm
04:20 AM 66.6°F19.2°C 66.6°F19.2°C 100% Calm Calm -- 29.84 in1010.5 mb - 0.00 in0.0 mm 0.00 in0.0 mm
04:25 AM 66.6°F19.2°C 66.6°F19.2°C 100% Calm Calm -- 29.84 in1010.5 mb - 0.00 in0.0 mm 0.00 in0.0 mm
04:30 AM 66.6°F19.2°C 66.6°F19.2°C 100% Calm Calm -- 29.84 in1010.5 mb - 0.00 in0.0 mm 0.00 in0.0 mm
04:35 AM 66.6°F19.2°C 66.6°F19.2°C 100% Calm Calm -- 29.83 in1010.2 mb - 0.00 in0.0 mm 0.00 in0.0 mm
04:40 AM 66.6°F19.2°C 66.6°F19.2°C 100% Calm Calm -- 29.83 in1010.2 mb - 0.00 in0.0 mm 0.00 in0.0 mm
04:45 AM 66.6°F19.2°C 66.6°F19.2°C 100% Calm Calm -- 29.83 in1010.2 mb - 0.00 in0.0 mm 0.00 in0.0 mm
04:50 AM 66.5°F19.2°C 66.5°F19.2°C 100% Calm Calm -- 29.83 in1010.2 mb - 0.00 in0.0 mm 0.00 in0.0 mm
04:55 AM 66.6°F19.2°C 66.6°F19.2°C 100% Calm Calm -- 29.83 in1010.2 mb - 0.00 in0.0 mm 0.00 in0.0 mm
05:00 AM 66.6°F19.2°C 66.6°F19.2°C 100% Calm Calm -- 29.83 in1010.2 mb - 0.00 in0.0 mm 0.00 in0.0 mm
05:05 AM 66.5°F19.2°C 66.5°F19.2°C 100% Calm Calm -- 29.83 in1010.2 mb - 0.00 in0.0 mm 0.00 in0.0 mm
05:10 AM 66.5°F19.2°C 66.5°F19.2°C 100% Calm Calm -- 29.83 in1010.2 mb - 0.00 in0.0 mm 0.00 in0.0 mm
05:15 AM 66.5°F19.2°C 66.5°F19.2°C 100% Calm Calm -- 29.83 in1010.2 mb - 0.00 in0.0 mm 0.00 in0.0 mm
05:20 AM 66.6°F19.2°C 66.6°F19.2°C 100% Calm Calm -- 29.83 in1010.2 mb - 0.00 in0.0 mm 0.00 in0.0 mm
05:25 AM 66.5°F19.2°C 66.5°F19.2°C 100% Calm Calm -- 29.83 in1010.2 mb - 0.00 in0.0 mm 0.00 in0.0 mm
05:30 AM 66.5°F19.2°C 66.5°F19.2°C 100% Calm Calm -- 29.83 in1010.2 mb - 0.00 in0.0 mm 0.00 in0.0 mm
05:35 AM 66.4°F19.1°C 66.4°F19.1°C 100% Calm Calm -- 29.83 in1010.2 mb - 0.00 in0.0 mm 0.00 in0.0 mm
05:40 AM 66.4°F19.1°C 66.4°F19.1°C 100% Calm Calm -- 29.83 in1010.2 mb - 0.00 in0.0 mm 0.00 in0.0 mm
05:45 AM 66.5°F19.2°C 66.5°F19.2°C 100% Calm Calm -- 29.83 in1010.2 mb - 0.00 in0.0 mm 0.00 in0.0 mm
05:50 AM 66.4°F19.1°C 66.4°F19.1°C 100% Calm Calm -- 29.83 in1010.2 mb - 0.00 in0.0 mm 0.00 in0.0 mm
05:55 AM 66.4°F19.1°C 66.4°F19.1°C 100% Calm Calm 1.2 mph1.9 kmh 29.83 in1010.2 mb - 0.00 in0.0 mm 0.00 in0.0 mm
06:00 AM 66.6°F19.2°C 66.6°F19.2°C 100% Calm Calm -- 29.83 in1010.2 mb - 0.00 in0.0 mm 0.00 in0.0 mm
06:05 AM 66.6°F19.2°C 66.6°F19.2°C 100% Calm Calm -- 29.83 in1010.2 mb - 0.00 in0.0 mm 0.00 in0.0 mm
06:10 AM 66.6°F19.2°C 66.6°F19.2°C 100% Calm Calm 1.2 mph1.9 kmh 29.83 in1010.2 mb - 0.00 in0.0 mm 0.00 in0.0 mm
06:15 AM 66.5°F19.2°C 66.5°F19.2°C 100% Calm Calm -- 29.83 in1010.2 mb - 0.00 in0.0 mm 0.00 in0.0 mm
06:20 AM 66.5°F19.2°C 66.5°F19.2°C 100% Calm Calm 1.2 mph1.9 kmh 29.83 in1010.2 mb - 0.00 in0.0 mm 0.00 in0.0 mm
06:25 AM 66.6°F19.2°C 66.6°F19.2°C 100% Calm Calm -- 29.83 in1010.2 mb - 0.00 in0.0 mm 0.00 in0.0 mm
06:30 AM 66.6°F19.2°C 66.6°F19.2°C 100% Calm Calm -- 29.83 in1010.2 mb - 0.00 in0.0 mm 0.00 in0.0 mm
06:35 AM 66.5°F19.2°C 66.5°F19.2°C 100% Calm Calm -- 29.83 in1010.2 mb - 0.00 in0.0 mm 0.00 in0.0 mm
06:40 AM 66.6°F19.2°C 66.6°F19.2°C 100% Calm Calm -- 29.83 in1010.2 mb - 0.00 in0.0 mm 0.00 in0.0 mm
06:45 AM 66.7°F19.3°C 66.7°F19.3°C 100% Calm Calm -- 29.83 in1010.2 mb - 0.00 in0.0 mm 0.00 in0.0 mm
06:50 AM 66.6°F19.2°C 66.6°F19.2°C 100% Calm Calm -- 29.83 in1010.2 mb - 0.00 in0.0 mm 0.00 in0.0 mm
06:55 AM 66.7°F19.3°C 66.7°F19.3°C 100% Calm Calm -- 29.83 in1010.2 mb - 0.00 in0.0 mm 0.00 in0.0 mm
07:00 AM 66.7°F19.3°C 66.7°F19.3°C 100% Calm Calm -- 29.83 in1010.2 mb - 0.00 in0.0 mm 0.00 in0.0 mm
07:05 AM 66.8°F19.3°C 66.8°F19.3°C 100% Calm Calm -- 29.83 in1010.2 mb - 0.00 in0.0 mm 0.00 in0.0 mm
07:10 AM 66.8°F19.3°C 66.8°F19.3°C 100% Calm Calm -- 29.83 in1010.2 mb - 0.00 in0.0 mm 0.00 in0.0 mm
07:15 AM 66.9°F19.4°C 66.9°F19.4°C 100% Calm Calm -- 29.82 in1009.8 mb - 0.00 in0.0 mm 0.00 in0.0 mm
07:20 AM 67.0°F19.4°C 67.0°F19.4°C 100% Calm Calm 1.2 mph1.9 kmh 29.82 in1009.8 mb - 0.00 in0.0 mm 0.00 in0.0 mm
07:25 AM 67.0°F19.4°C 67.0°F19.4°C 100% 1.2 mph ENE1.9 kmh ENE 4.6 mph7.4 kmh 29.83 in1010.2 mb - 0.00 in0.0 mm 0.00 in0.0 mm
07:30 AM 67.1°F19.5°C 67.1°F19.5°C 100% Calm Calm -- 29.83 in1010.2 mb - 0.00 in0.0 mm 0.00 in0.0 mm
07:35 AM 67.0°F19.4°C 67.0°F19.4°C 100% Calm Calm -- 29.83 in1010.2 mb - 0.00 in0.0 mm 0.00 in0.0 mm
07:40 AM 67.0°F19.4°C 67.0°F19.4°C 100% Calm Calm -- 29.83 in1010.2 mb - 0.00 in0.0 mm 0.00 in0.0 mm
07:45 AM 67.1°F19.5°C 67.1°F19.5°C 100% Calm Calm -- 29.83 in1010.2 mb - 0.00 in0.0 mm 0.00 in0.0 mm
07:50 AM 67.2°F19.6°C 67.2°F19.6°C 100% Calm Calm -- 29.82 in1009.8 mb - 0.00 in0.0 mm 0.00 in0.0 mm
07:55 AM 67.2°F19.6°C 67.2°F19.6°C 100% 1.2 mph ENE1.9 kmh ENE 3.5 mph5.6 kmh 29.82 in1009.8 mb - 0.00 in0.0 mm 0.00 in0.0 mm
08:00 AM 67.3°F19.6°C 67.3°F19.6°C 100% Calm Calm -- 29.83 in1010.2 mb - 0.00 in0.0 mm 0.00 in0.0 mm
08:05 AM 67.4°F19.7°C 67.4°F19.7°C 100% 1.2 mph ENE1.9 kmh ENE 3.5 mph5.6 kmh 29.82 in1009.8 mb - 0.00 in0.0 mm 0.00 in0.0 mm
08:10 AM 67.5°F19.7°C 67.5°F19.7°C 100% Calm Calm 3.5 mph5.6 kmh 29.83 in1010.2 mb - 0.00 in0.0 mm 0.00 in0.0 mm
08:15 AM 67.6°F19.8°C 67.6°F19.8°C 100% Calm Calm 1.2 mph1.9 kmh 29.83 in1010.2 mb - 0.00 in0.0 mm 0.00 in0.0 mm
08:20 AM 67.7°F19.8°C 67.7°F19.8°C 100% Calm Calm -- 29.83 in1010.2 mb - 0.00 in0.0 mm 0.00 in0.0 mm
08:25 AM 67.7°F19.8°C 67.7°F19.8°C 100% Calm Calm -- 29.83 in1010.2 mb - 0.00 in0.0 mm 0.00 in0.0 mm
08:30 AM 67.8°F19.9°C 67.8°F19.9°C 100% Calm Calm -- 29.83 in1010.2 mb - 0.00 in0.0 mm 0.00 in0.0 mm
08:35 AM 67.9°F19.9°C 67.9°F19.9°C 100% Calm Calm -- 29.83 in1010.2 mb - 0.00 in0.0 mm 0.00 in0.0 mm
08:40 AM 68.0°F20.0°C 68.0°F20.0°C 100% Calm Calm 1.2 mph1.9 kmh 29.83 in1010.2 mb - 0.00 in0.0 mm 0.00 in0.0 mm
08:45 AM 68.1°F20.1°C 68.1°F20.1°C 100% Calm Calm -- 29.83 in1010.2 mb - 0.00 in0.0 mm 0.00 in0.0 mm
08:50 AM 68.3°F20.2°C 68.3°F20.2°C 100% Calm Calm -- 29.83 in1010.2 mb - 0.00 in0.0 mm 0.00 in0.0 mm
08:55 AM 68.4°F20.2°C 68.1°F20.1°C 99% Calm Calm -- 29.83 in1010.2 mb - 0.00 in0.0 mm 0.00 in0.0 mm
09:00 AM 68.5°F20.3°C 68.2°F20.1°C 99% Calm Calm -- 29.83 in1010.2 mb - 0.00 in0.0 mm 0.00 in0.0 mm
09:05 AM 68.5°F20.3°C 68.2°F20.1°C 99% Calm Calm -- 29.83 in1010.2 mb - 0.00 in0.0 mm 0.00 in0.0 mm
09:10 AM 68.6°F20.3°C 68.3°F20.2°C 99% Calm Calm -- 29.83 in1010.2 mb - 0.00 in0.0 mm 0.00 in0.0 mm
09:15 AM 68.7°F20.4°C 68.4°F20.2°C 99% Calm Calm -- 29.83 in1010.2 mb - 0.00 in0.0 mm 0.00 in0.0 mm
09:20 AM 68.9°F20.5°C 68.3°F20.2°C 98% Calm Calm 1.2 mph1.9 kmh 29.83 in1010.2 mb - 0.00 in0.0 mm 0.00 in0.0 mm
09:25 AM 69.0°F20.6°C 68.4°F20.2°C 98% Calm Calm 1.2 mph1.9 kmh 29.83 in1010.2 mb - 0.00 in0.0 mm 0.00 in0.0 mm
09:30 AM 69.1°F20.6°C 68.6°F20.3°C 98% 2.3 mph ENE3.7 kmh ENE 3.5 mph5.6 kmh 29.83 in1010.2 mb - 0.00 in0.0 mm 0.00 in0.0 mm
09:35 AM 69.2°F20.7°C 68.7°F20.4°C 98% Calm Calm -- 29.83 in1010.2 mb - 0.00 in0.0 mm 0.00 in0.0 mm
09:40 AM 69.4°F20.8°C 68.8°F20.4°C 98% Calm Calm -- 29.83 in1010.2 mb - 0.00 in0.0 mm 0.00 in0.0 mm
09:45 AM 69.6°F20.9°C 69.0°F20.6°C 98% Calm Calm -- 29.83 in1010.2 mb - 0.00 in0.0 mm 0.00 in0.0 mm
09:50 AM 69.8°F21.0°C 68.9°F20.5°C 97% Calm Calm -- 29.83 in1010.2 mb - 0.00 in0.0 mm 0.00 in0.0 mm
09:55 AM 69.9°F21.1°C 69.0°F20.6°C 97% Calm Calm -- 29.83 in1010.2 mb - 0.00 in0.0 mm 0.00 in0.0 mm
10:00 AM 70.0°F21.1°C 69.1°F20.6°C 97% Calm Calm -- 29.83 in1010.2 mb - 0.00 in0.0 mm 0.00 in0.0 mm
10:05 AM 70.1°F21.2°C 68.9°F20.5°C 96% Calm Calm -- 29.83 in1010.2 mb - 0.00 in0.0 mm 0.00 in0.0 mm
10:10 AM 70.2°F21.2°C 69.0°F20.6°C 96% Calm Calm -- 29.83 in1010.2 mb - 0.00 in0.0 mm 0.00 in0.0 mm
10:15 AM 70.3°F21.3°C 69.1°F20.6°C 96% Calm Calm -- 29.83 in1010.2 mb - 0.00 in0.0 mm 0.00 in0.0 mm
10:20 AM 70.4°F21.3°C 69.2°F20.7°C 96% Calm Calm 1.2 mph1.9 kmh 29.82 in1009.8 mb - 0.00 in0.0 mm 0.00 in0.0 mm
10:25 AM 70.4°F21.3°C 69.2°F20.7°C 96% Calm Calm 1.2 mph1.9 kmh 29.82 in1009.8 mb - 0.00 in0.0 mm 0.00 in0.0 mm
10:30 AM 70.4°F21.3°C 69.2°F20.7°C 96% Calm Calm -- 29.82 in1009.8 mb - 0.00 in0.0 mm 0.00 in0.0 mm
10:35 AM 70.4°F21.3°C 69.2°F20.7°C 96% Calm Calm -- 29.83 in1010.2 mb - 0.00 in0.0 mm 0.00 in0.0 mm
10:40 AM 70.6°F21.4°C 69.4°F20.8°C 96% 1.2 mph ENE1.9 kmh ENE 3.5 mph5.6 kmh 29.82 in1009.8 mb - 0.00 in0.0 mm 0.00 in0.0 mm
10:45 AM 70.7°F21.5°C 69.5°F20.8°C 96% Calm Calm 2.3 mph3.7 kmh 29.82 in1009.8 mb - 0.00 in0.0 mm 0.00 in0.0 mm
10:50 AM 70.9°F21.6°C 69.7°F20.9°C 96% 1.2 mph ENE1.9 kmh ENE 4.6 mph7.4 kmh 29.82 in1009.8 mb - 0.00 in0.0 mm 0.00 in0.0 mm
10:55 AM 71.0°F21.7°C 69.8°F21.0°C 96% 1.2 mph ENE1.9 kmh ENE 4.6 mph7.4 kmh 29.82 in1009.8 mb - 0.00 in0.0 mm 0.00 in0.0 mm
11:00 AM 71.2°F21.8°C 69.7°F20.9°C 95% Calm Calm -- 29.82 in1009.8 mb - 0.00 in0.0 mm 0.00 in0.0 mm
11:05 AM 71.4°F21.9°C 70.2°F21.2°C 96% Calm Calm -- 29.82 in1009.8 mb - 0.00 in0.0 mm 0.00 in0.0 mm
11:10 AM 71.6°F22.0°C 70.1°F21.2°C 95% 2.3 mph S3.7 kmh S 5.8 mph9.3 kmh 29.82 in1009.8 mb - 0.00 in0.0 mm 0.00 in0.0 mm
11:15 AM 71.6°F22.0°C 70.1°F21.2°C 95% Calm Calm -- 29.82 in1009.8 mb - 0.00 in0.0 mm 0.00 in0.0 mm
11:20 AM 71.7°F22.1°C 70.1°F21.2°C 95% Calm Calm 1.2 mph1.9 kmh 29.82 in1009.8 mb - 0.00 in0.0 mm 0.00 in0.0 mm
11:25 AM 71.7°F22.1°C 70.2°F21.2°C 95% Calm Calm 1.2 mph1.9 kmh 29.82 in1009.8 mb - 0.00 in0.0 mm 0.00 in0.0 mm
11:30 AM 71.9°F22.2°C 70.4°F21.3°C 95% Calm Calm -- 29.82 in1009.8 mb - 0.00 in0.0 mm 0.00 in0.0 mm
11:35 AM 72.2°F22.3°C 70.7°F21.5°C 95% 2.3 mph SE3.7 kmh SE 6.9 mph11.1 kmh 29.81 in1009.5 mb - 0.00 in0.0 mm 0.00 in0.0 mm
11:40 AM 72.5°F22.5°C 70.7°F21.5°C 94% Calm Calm -- 29.81 in1009.5 mb - 0.00 in0.0 mm 0.00 in0.0 mm
11:45 AM 72.8°F22.7°C 70.9°F21.6°C 94% Calm Calm 3.5 mph5.6 kmh 29.81 in1009.5 mb - 0.00 in0.0 mm 0.00 in0.0 mm
11:50 AM 73.0°F22.8°C 71.2°F21.8°C 94% Calm Calm -- 29.81 in1009.5 mb - 0.00 in0.0 mm 0.00 in0.0 mm
11:55 AM 73.4°F23.0°C 71.2°F21.8°C 93% Calm Calm -- 29.81 in1009.5 mb - 0.00 in0.0 mm 0.00 in0.0 mm
12:00 PM 73.8°F23.2°C 71.3°F21.8°C 92% Calm Calm -- 29.81 in1009.5 mb - 0.00 in0.0 mm 0.00 in0.0 mm
12:05 PM 74.0°F23.3°C 71.2°F21.8°C 91% Calm Calm -- 29.80 in1009.1 mb - 0.00 in0.0 mm 0.00 in0.0 mm
12:10 PM 73.9°F23.3°C 71.1°F21.7°C 91% Calm Calm -- 29.81 in1009.5 mb - 0.00 in0.0 mm 0.00 in0.0 mm
12:15 PM 73.5°F23.1°C 71.0°F21.7°C 92% Calm Calm -- 29.81 in1009.5 mb - 0.00 in0.0 mm 0.00 in0.0 mm
12:20 PM 73.4°F23.0°C 71.0°F21.7°C 92% Calm Calm -- 29.80 in1009.1 mb - 0.00 in0.0 mm 0.00 in0.0 mm
12:25 PM 73.5°F23.1°C 71.0°F21.7°C 92% Calm Calm -- 29.80 in1009.1 mb - 0.00 in0.0 mm 0.00 in0.0 mm
12:30 PM 73.7°F23.2°C 71.2°F21.8°C 92% Calm Calm -- 29.80 in1009.1 mb - 0.00 in0.0 mm 0.00 in0.0 mm
12:35 PM 73.9°F23.3°C 71.4°F21.9°C 92% Calm Calm -- 29.80 in1009.1 mb - 0.00 in0.0 mm 0.00 in0.0 mm
12:40 PM 74.1°F23.4°C 71.3°F21.8°C 91% Calm Calm -- 29.80 in1009.1 mb - 0.00 in0.0 mm 0.00 in0.0 mm
12:45 PM 74.2°F23.4°C 71.4°F21.9°C 91% Calm Calm -- 29.80 in1009.1 mb - 0.00 in0.0 mm 0.00 in0.0 mm
12:50 PM 74.3°F23.5°C 71.5°F21.9°C 91% Calm Calm -- 29.79 in1008.8 mb - 0.00 in0.0 mm 0.00 in0.0 mm
12:55 PM 74.4°F23.6°C 71.6°F22.0°C 91% Calm Calm -- 29.79 in1008.8 mb - 0.00 in0.0 mm 0.00 in0.0 mm
01:00 PM 74.3°F23.5°C 71.5°F21.9°C 91% Calm Calm 1.2 mph1.9 kmh 29.79 in1008.8 mb - 0.00 in0.0 mm 0.00 in0.0 mm
01:05 PM 74.3°F23.5°C 71.5°F21.9°C 91% Calm Calm -- 29.79 in1008.8 mb - 0.00 in0.0 mm 0.00 in0.0 mm
01:10 PM 74.4°F23.6°C 71.6°F22.0°C 91% 1.2 mph ENE1.9 kmh ENE 4.6 mph7.4 kmh 29.79 in1008.8 mb - 0.00 in0.0 mm 0.00 in0.0 mm
01:15 PM 74.5°F23.6°C 71.7°F22.1°C 91% Calm Calm -- 29.79 in1008.8 mb - 0.00 in0.0 mm 0.00 in0.0 mm
01:20 PM 74.7°F23.7°C 71.6°F22.0°C 90% Calm Calm 1.2 mph1.9 kmh 29.79 in1008.8 mb - 0.00 in0.0 mm 0.00 in0.0 mm
01:25 PM 75.1°F23.9°C 72.0°F22.2°C 90% Calm Calm -- 29.79 in1008.8 mb - 0.00 in0.0 mm 0.00 in0.0 mm
01:30 PM 75.5°F24.2°C 72.0°F22.2°C 89% Calm Calm -- 29.78 in1008.5 mb - 0.00 in0.0 mm 0.00 in0.0 mm
01:35 PM 75.6°F24.2°C 72.5°F22.5°C 90% Calm Calm -- 29.78 in1008.5 mb - 0.00 in0.0 mm 0.00 in0.0 mm
01:40 PM 75.6°F24.2°C 72.1°F22.3°C 89% Calm Calm -- 29.78 in1008.5 mb - 0.00 in0.0 mm 0.00 in0.0 mm
01:45 PM 75.4°F24.1°C 72.3°F22.4°C 90% Calm Calm -- 29.77 in1008.1 mb - 0.00 in0.0 mm 0.00 in0.0 mm
01:50 PM 75.1°F23.9°C 72.0°F22.2°C 90% Calm Calm -- 29.77 in1008.1 mb - 0.00 in0.0 mm 0.00 in0.0 mm
01:55 PM 74.9°F23.8°C 71.8°F22.1°C 90% Calm Calm 3.5 mph5.6 kmh 29.77 in1008.1 mb - 0.00 in0.0 mm 0.00 in0.0 mm
02:00 PM 74.9°F23.8°C 72.1°F22.3°C 91% Calm Calm 1.2 mph1.9 kmh 29.77 in1008.1 mb - 0.00 in0.0 mm 0.00 in0.0 mm
02:05 PM 75.3°F24.1°C 72.8°F22.7°C 92% Calm Calm -- 29.77 in1008.1 mb - 0.00 in0.0 mm 0.00 in0.0 mm
02:10 PM 75.6°F24.2°C 72.1°F22.3°C 89% Calm Calm 1.2 mph1.9 kmh 29.77 in1008.1 mb - 0.00 in0.0 mm 0.00 in0.0 mm
02:15 PM 76.1°F24.5°C 73.0°F22.8°C 90% Calm Calm -- 29.77 in1008.1 mb - 0.00 in0.0 mm 0.00 in0.0 mm
02:20 PM 76.6°F24.8°C 73.1°F22.8°C 89% Calm Calm 4.6 mph7.4 kmh 29.77 in1008.1 mb - 0.00 in0.0 mm 0.00 in0.0 mm
02:25 PM 76.5°F24.7°C 72.7°F22.6°C 88% Calm Calm 1.2 mph1.9 kmh 29.76 in1007.8 mb - 0.00 in0.0 mm 0.00 in0.0 mm
02:30 PM 76.3°F24.6°C 72.8°F22.7°C 89% Calm Calm -- 29.77 in1008.1 mb - 0.00 in0.0 mm 0.00 in0.0 mm
02:35 PM 76.2°F24.6°C 72.7°F22.6°C 89% Calm Calm -- 29.76 in1007.8 mb - 0.00 in0.0 mm 0.00 in0.0 mm
02:40 PM 76.4°F24.7°C 72.9°F22.7°C 89% Calm Calm -- 29.76 in1007.8 mb - 0.00 in0.0 mm 0.00 in0.0 mm
02:45 PM 76.8°F24.9°C 72.6°F22.6°C 87% 1.2 mph NE1.9 kmh NE 4.6 mph7.4 kmh 29.76 in1007.8 mb - 0.00 in0.0 mm 0.00 in0.0 mm
02:50 PM 77.1°F25.1°C 72.6°F22.6°C 86% Calm Calm 3.5 mph5.6 kmh 29.76 in1007.8 mb - 0.00 in0.0 mm 0.00 in0.0 mm
02:55 PM 77.4°F25.2°C 72.5°F22.5°C 85% 1.2 mph S1.9 kmh S 3.5 mph5.6 kmh 29.76 in1007.8 mb - 0.00 in0.0 mm 0.00 in0.0 mm
03:00 PM 77.9°F25.5°C 73.0°F22.8°C 85% Calm Calm 1.2 mph1.9 kmh 29.75 in1007.5 mb - 0.00 in0.0 mm 0.00 in0.0 mm
03:05 PM 78.4°F25.8°C 73.8°F23.2°C 86% Calm Calm -- 29.75 in1007.5 mb - 0.00 in0.0 mm 0.00 in0.0 mm
03:10 PM 78.7°F25.9°C 73.1°F22.8°C 83% Calm Calm -- 29.75 in1007.5 mb - 0.00 in0.0 mm 0.00 in0.0 mm
03:15 PM 78.7°F25.9°C 73.1°F22.8°C 83% 1.2 mph S1.9 kmh S 1.2 mph1.9 kmh 29.75 in1007.5 mb - 0.00 in0.0 mm 0.00 in0.0 mm
03:20 PM 78.7°F25.9°C 73.1°F22.8°C 83% Calm Calm -- 29.74 in1007.1 mb - 0.00 in0.0 mm 0.00 in0.0 mm
03:25 PM 79.1°F26.2°C 73.1°F22.8°C 82% Calm Calm 1.2 mph1.9 kmh 29.74 in1007.1 mb - 0.00 in0.0 mm 0.00 in0.0 mm
03:30 PM 79.4°F26.3°C 73.1°F22.8°C 81% Calm Calm -- 29.74 in1007.1 mb - 0.00 in0.0 mm 0.00 in0.0 mm
03:35 PM 79.4°F26.3°C 72.7°F22.6°C 80% Calm Calm -- 29.74 in1007.1 mb - 0.00 in0.0 mm 0.00 in0.0 mm
03:40 PM 79.7°F26.5°C 73.7°F23.2°C 82% Calm Calm 4.6 mph7.4 kmh 29.73 in1006.8 mb - 0.00 in0.0 mm 0.00 in0.0 mm
03:45 PM 79.5°F26.4°C 72.8°F22.7°C 80% Calm Calm 1.2 mph1.9 kmh 29.73 in1006.8 mb - 0.00 in0.0 mm 0.00 in0.0 mm
03:50 PM 79.2°F26.2°C 73.2°F22.9°C 82% Calm Calm 1.2 mph1.9 kmh 29.74 in1007.1 mb - 0.00 in0.0 mm 0.00 in0.0 mm
03:55 PM 79.2°F26.2°C 73.2°F22.9°C 82% Calm Calm 1.2 mph1.9 kmh 29.73 in1006.8 mb - 0.00 in0.0 mm 0.00 in0.0 mm
04:00 PM 79.5°F26.4°C 73.9°F23.3°C 83% Calm Calm -- 29.73 in1006.8 mb - 0.00 in0.0 mm 0.00 in0.0 mm
04:05 PM 79.8°F26.6°C 73.8°F23.2°C 82% Calm Calm 1.2 mph1.9 kmh 29.73 in1006.8 mb - 0.00 in0.0 mm 0.00 in0.0 mm
04:10 PM 79.5°F26.4°C 73.2°F22.9°C 81% 2.3 mph E3.7 kmh E 3.5 mph5.6 kmh 29.73 in1006.8 mb - 0.00 in0.0 mm 0.00 in0.0 mm
04:15 PM 79.0°F26.1°C 73.0°F22.8°C 82% Calm Calm -- 29.72 in1006.4 mb - 0.00 in0.0 mm 0.00 in0.0 mm
04:20 PM 78.8°F26.0°C 73.5°F23.1°C 84% Calm Calm -- 29.72 in1006.4 mb - 0.00 in0.0 mm 0.00 in0.0 mm
04:25 PM 78.7°F25.9°C 73.5°F23.1°C 84% Calm Calm -- 29.72 in1006.4 mb - 0.00 in0.0 mm 0.00 in0.0 mm
04:30 PM 78.7°F25.9°C 73.1°F22.8°C 83% 2.3 mph E3.7 kmh E 5.8 mph9.3 kmh 29.71 in1006.1 mb - 0.00 in0.0 mm 0.00 in0.0 mm
04:35 PM 78.6°F25.9°C 73.7°F23.2°C 85% Calm Calm 3.5 mph5.6 kmh 29.71 in1006.1 mb - 0.00 in0.0 mm 0.00 in0.0 mm
04:40 PM 78.3°F25.7°C 73.4°F23.0°C 85% 1.2 mph ESE1.9 kmh ESE 8.1 mph13.0 kmh 29.71 in1006.1 mb - 0.00 in0.0 mm 0.00 in0.0 mm
04:45 PM 78.0°F25.6°C 72.8°F22.7°C 84% Calm Calm 4.6 mph7.4 kmh 29.71 in1006.1 mb - 0.00 in0.0 mm 0.00 in0.0 mm
04:50 PM 77.7°F25.4°C 72.8°F22.7°C 85% 2.3 mph SE3.7 kmh SE 4.6 mph7.4 kmh 29.71 in1006.1 mb - 0.00 in0.0 mm 0.00 in0.0 mm
04:55 PM 77.5°F25.3°C 73.0°F22.8°C 86% Calm Calm 4.6 mph7.4 kmh 29.71 in1006.1 mb - 0.00 in0.0 mm 0.00 in0.0 mm
05:00 PM 77.4°F25.2°C 73.6°F23.1°C 88% 1.2 mph SW1.9 kmh SW -- 29.71 in1006.1 mb - 0.00 in0.0 mm 0.00 in0.0 mm
05:05 PM 76.9°F24.9°C 72.7°F22.6°C 87% Calm Calm 4.6 mph7.4 kmh 29.71 in1006.1 mb - 0.00 in0.0 mm 0.00 in0.0 mm
05:10 PM 76.2°F24.6°C 72.4°F22.4°C 88% Calm Calm -- 29.71 in1006.1 mb - 0.00 in0.0 mm 0.00 in0.0 mm
05:15 PM 76.0°F24.4°C 72.2°F22.3°C 88% Calm Calm -- 29.71 in1006.1 mb - 0.00 in0.0 mm 0.00 in0.0 mm
05:20 PM 76.0°F24.4°C 72.5°F22.5°C 89% Calm Calm -- 29.71 in1006.1 mb - 0.00 in0.0 mm 0.00 in0.0 mm
05:25 PM 75.9°F24.4°C 71.7°F22.1°C 87% Calm Calm 3.5 mph5.6 kmh 29.71 in1006.1 mb - 0.00 in0.0 mm 0.00 in0.0 mm
05:30 PM 75.9°F24.4°C 72.1°F22.3°C 88% Calm Calm -- 29.70 in1005.8 mb - 0.00 in0.0 mm 0.00 in0.0 mm
05:35 PM 75.8°F24.3°C 71.3°F21.8°C 86% 2.3 mph ENE3.7 kmh ENE 4.6 mph7.4 kmh 29.71 in1006.1 mb - 0.00 in0.0 mm 0.00 in0.0 mm
05:40 PM 75.5°F24.2°C 71.4°F21.9°C 87% Calm Calm -- 29.71 in1006.1 mb - 0.00 in0.0 mm 0.00 in0.0 mm
05:45 PM 75.4°F24.1°C 71.6°F22.0°C 88% Calm Calm -- 29.71 in1006.1 mb - 0.00 in0.0 mm 0.00 in0.0 mm
05:50 PM 75.2°F24.0°C 71.7°F22.1°C 89% Calm Calm -- 29.71 in1006.1 mb - 0.00 in0.0 mm 0.00 in0.0 mm
05:55 PM 75.0°F23.9°C 71.5°F21.9°C 89% Calm Calm -- 29.72 in1006.4 mb - 0.00 in0.0 mm 0.00 in0.0 mm
06:00 PM 74.9°F23.8°C 71.7°F22.1°C 90% Calm Calm -- 29.72 in1006.4 mb - 0.00 in0.0 mm 0.00 in0.0 mm
06:05 PM 74.7°F23.7°C 71.9°F22.2°C 91% Calm Calm -- 29.72 in1006.4 mb - 0.00 in0.0 mm 0.00 in0.0 mm
06:10 PM 74.7°F23.7°C 72.2°F22.3°C 92% Calm Calm -- 29.72 in1006.4 mb - 0.01 in0.3 mm 0.01 in0.3 mm
06:15 PM 74.6°F23.7°C 72.1°F22.3°C 92% Calm Calm -- 29.72 in1006.4 mb - 0.01 in0.3 mm 0.02 in0.5 mm
06:20 PM 74.4°F23.6°C 72.2°F22.3°C 93% Calm Calm -- 29.71 in1006.1 mb - 0.00 in0.0 mm 0.02 in0.5 mm
06:25 PM 74.0°F23.3°C 71.9°F22.2°C 93% Calm Calm -- 29.71 in1006.1 mb - 0.01 in0.3 mm 0.03 in0.8 mm
06:30 PM 73.8°F23.2°C 72.2°F22.3°C 95% Calm Calm -- 29.71 in1006.1 mb - 0.01 in0.3 mm 0.04 in1.0 mm
06:35 PM 73.5°F23.1°C 72.0°F22.2°C 95% Calm Calm -- 29.71 in1006.1 mb - 0.00 in0.0 mm 0.04 in1.0 mm
06:40 PM 73.3°F22.9°C 72.1°F22.3°C 96% 1.2 mph E1.9 kmh E 3.5 mph5.6 kmh 29.70 in1005.8 mb - 0.00 in0.0 mm 0.04 in1.0 mm
06:45 PM 73.1°F22.8°C 72.2°F22.3°C 97% Calm Calm 1.2 mph1.9 kmh 29.70 in1005.8 mb - 0.00 in0.0 mm 0.04 in1.0 mm
06:50 PM 73.0°F22.8°C 72.1°F22.3°C 97% Calm Calm -- 29.70 in1005.8 mb - 0.00 in0.0 mm 0.04 in1.0 mm
06:55 PM 72.9°F22.7°C 72.0°F22.2°C 97% Calm Calm -- 29.71 in1006.1 mb - 0.00 in0.0 mm 0.04 in1.0 mm
07:00 PM 72.8°F22.7°C 71.9°F22.2°C 97% 1.2 mph E1.9 kmh E 3.5 mph5.6 kmh 29.71 in1006.1 mb - 0.00 in0.0 mm 0.04 in1.0 mm
07:05 PM 72.6°F22.6°C 72.0°F22.2°C 98% 1.2 mph ENE1.9 kmh ENE 3.5 mph5.6 kmh 29.71 in1006.1 mb - 0.00 in0.0 mm 0.04 in1.0 mm
07:10 PM 72.6°F22.6°C 72.0°F22.2°C 98% Calm Calm -- 29.71 in1006.1 mb - 0.00 in0.0 mm 0.04 in1.0 mm
07:15 PM 72.6°F22.6°C 72.0°F22.2°C 98% 1.2 mph ENE1.9 kmh ENE 2.3 mph3.7 kmh 29.71 in1006.1 mb - 0.00 in0.0 mm 0.04 in1.0 mm
07:20 PM 72.5°F22.5°C 71.9°F22.2°C 98% Calm Calm -- 29.72 in1006.4 mb - 0.00 in0.0 mm 0.04 in1.0 mm
07:25 PM 72.4°F22.4°C 71.8°F22.1°C 98% Calm Calm -- 29.72 in1006.4 mb - 0.00 in0.0 mm 0.04 in1.0 mm
07:30 PM 72.4°F22.4°C 71.8°F22.1°C 98% Calm Calm -- 29.71 in1006.1 mb - 0.00 in0.0 mm 0.04 in1.0 mm
07:35 PM 72.3°F22.4°C 71.7°F22.1°C 98% Calm Calm 4.6 mph7.4 kmh 29.71 in1006.1 mb - 0.00 in0.0 mm 0.04 in1.0 mm
07:40 PM 72.2°F22.3°C 71.6°F22.0°C 98% 1.2 mph E1.9 kmh E -- 29.71 in1006.1 mb - 0.00 in0.0 mm 0.04 in1.0 mm
07:45 PM 72.1°F22.3°C 71.5°F21.9°C 98% Calm Calm 3.5 mph5.6 kmh 29.71 in1006.1 mb - 0.00 in0.0 mm 0.04 in1.0 mm
07:50 PM 72.0°F22.2°C 71.7°F22.1°C 99% Calm Calm -- 29.71 in1006.1 mb - 0.00 in0.0 mm 0.04 in1.0 mm
07:55 PM 71.9°F22.2°C 71.6°F22.0°C 99% 1.2 mph E1.9 kmh E 3.5 mph5.6 kmh 29.71 in1006.1 mb - 0.00 in0.0 mm 0.04 in1.0 mm
08:00 PM 71.9°F22.2°C 71.6°F22.0°C 99% Calm Calm -- 29.71 in1006.1 mb - 0.00 in0.0 mm 0.04 in1.0 mm
08:05 PM 71.9°F22.2°C 71.6°F22.0°C 99% Calm Calm -- 29.71 in1006.1 mb - 0.00 in0.0 mm 0.04 in1.0 mm
08:10 PM 71.9°F22.2°C 71.6°F22.0°C 99% Calm Calm -- 29.71 in1006.1 mb - 0.00 in0.0 mm 0.04 in1.0 mm
08:15 PM 71.8°F22.1°C 71.5°F21.9°C 99% Calm Calm -- 29.71 in1006.1 mb - 0.00 in0.0 mm 0.04 in1.0 mm
08:20 PM 71.7°F22.1°C 71.4°F21.9°C 99% Calm Calm -- 29.71 in1006.1 mb - 0.00 in0.0 mm 0.04 in1.0 mm
08:25 PM 71.6°F22.0°C 71.3°F21.8°C 99% Calm Calm 1.2 mph1.9 kmh 29.71 in1006.1 mb - 0.00 in0.0 mm 0.04 in1.0 mm
08:30 PM 71.6°F22.0°C 71.3°F21.8°C 99% Calm Calm 2.3 mph3.7 kmh 29.71 in1006.1 mb - 0.00 in0.0 mm 0.04 in1.0 mm
08:35 PM 71.5°F21.9°C 71.2°F21.8°C 99% Calm Calm 3.5 mph5.6 kmh 29.71 in1006.1 mb - 0.00 in0.0 mm 0.04 in1.0 mm
08:40 PM 71.4°F21.9°C 71.1°F21.7°C 99% 1.2 mph ENE1.9 kmh ENE 3.5 mph5.6 kmh 29.71 in1006.1 mb - 0.00 in0.0 mm 0.04 in1.0 mm
08:45 PM 71.3°F21.8°C 71.0°F21.7°C 99% 2.3 mph ENE3.7 kmh ENE 3.5 mph5.6 kmh 29.71 in1006.1 mb - 0.00 in0.0 mm 0.04 in1.0 mm
08:50 PM 71.2°F21.8°C 70.9°F21.6°C 99% 3.5 mph ENE5.6 kmh ENE 6.9 mph11.1 kmh 29.71 in1006.1 mb - 0.00 in0.0 mm 0.04 in1.0 mm
08:55 PM 71.1°F21.7°C 70.8°F21.6°C 99% Calm Calm 2.3 mph3.7 kmh 29.71 in1006.1 mb - 0.00 in0.0 mm 0.04 in1.0 mm
09:00 PM 71.0°F21.7°C 70.7°F21.5°C 99% Calm Calm -- 29.71 in1006.1 mb - 0.00 in0.0 mm 0.04 in1.0 mm
09:05 PM 71.0°F21.7°C 70.7°F21.5°C 99% 2.3 mph ENE3.7 kmh ENE 2.3 mph3.7 kmh 29.71 in1006.1 mb - 0.00 in0.0 mm 0.04 in1.0 mm
09:10 PM 71.0°F21.7°C 70.7°F21.5°C 99% 2.3 mph ENE3.7 kmh ENE 3.5 mph5.6 kmh 29.71 in1006.1 mb - 0.00 in0.0 mm 0.04 in1.0 mm
09:15 PM 70.9°F21.6°C 70.6°F21.4°C 99% Calm Calm -- 29.71 in1006.1 mb - 0.01 in0.3 mm 0.05 in1.3 mm
09:20 PM 70.9°F21.6°C 70.6°F21.4°C 99% Calm Calm 2.3 mph3.7 kmh 29.72 in1006.4 mb - 0.00 in0.0 mm 0.05 in1.3 mm
09:25 PM 70.8°F21.6°C 70.5°F21.4°C 99% Calm Calm 4.6 mph7.4 kmh 29.71 in1006.1 mb - 0.00 in0.0 mm 0.05 in1.3 mm
09:30 PM 70.8°F21.6°C 70.5°F21.4°C 99% Calm Calm -- 29.71 in1006.1 mb - 0.00 in0.0 mm 0.05 in1.3 mm
09:35 PM 70.8°F21.6°C 70.5°F21.4°C 99% Calm Calm 4.6 mph7.4 kmh 29.71 in1006.1 mb - 0.00 in0.0 mm 0.05 in1.3 mm
09:40 PM 70.7°F21.5°C 70.4°F21.3°C 99% Calm Calm -- 29.71 in1006.1 mb - 0.00 in0.0 mm 0.05 in1.3 mm
09:45 PM 70.7°F21.5°C 70.7°F21.5°C 100% Calm Calm 1.2 mph1.9 kmh 29.71 in1006.1 mb - 0.00 in0.0 mm 0.05 in1.3 mm
09:50 PM 70.6°F21.4°C 70.6°F21.4°C 100% Calm Calm 3.5 mph5.6 kmh 29.70 in1005.8 mb - 0.02 in0.5 mm 0.07 in1.8 mm
09:55 PM 70.6°F21.4°C 70.6°F21.4°C 100% Calm Calm 3.5 mph5.6 kmh 29.70 in1005.8 mb - 0.00 in0.0 mm 0.07 in1.8 mm
10:00 PM 70.6°F21.4°C 70.6°F21.4°C 100% Calm Calm -- 29.71 in1006.1 mb - 0.01 in0.3 mm 0.08 in2.0 mm
10:05 PM 70.6°F21.4°C 70.6°F21.4°C 100% Calm Calm -- 29.71 in1006.1 mb - 0.00 in0.0 mm 0.08 in2.0 mm
10:10 PM 70.6°F21.4°C 70.6°F21.4°C 100% 1.2 mph ENE1.9 kmh ENE -- 29.71 in1006.1 mb - 0.00 in0.0 mm 0.08 in2.0 mm
10:15 PM 70.6°F21.4°C 70.6°F21.4°C 100% Calm Calm -- 29.71 in1006.1 mb - 0.00 in0.0 mm 0.08 in2.0 mm
10:20 PM 70.7°F21.5°C 70.7°F21.5°C 100% Calm Calm -- 29.71 in1006.1 mb - 0.00 in0.0 mm 0.08 in2.0 mm
10:25 PM 70.7°F21.5°C 70.7°F21.5°C 100% Calm Calm -- 29.71 in1006.1 mb - 0.00 in0.0 mm 0.08 in2.0 mm
10:30 PM 70.6°F21.4°C 70.6°F21.4°C 100% Calm Calm -- 29.71 in1006.1 mb - 0.00 in0.0 mm 0.08 in2.0 mm
10:35 PM 70.6°F21.4°C 70.6°F21.4°C 100% Calm Calm -- 29.71 in1006.1 mb - 0.01 in0.3 mm 0.09 in2.3 mm
10:40 PM 70.6°F21.4°C 70.6°F21.4°C 100% Calm Calm -- 29.71 in1006.1 mb - 0.01 in0.3 mm 0.10 in2.5 mm
10:45 PM 70.6°F21.4°C 70.6°F21.4°C 100% Calm Calm -- 29.71 in1006.1 mb - 0.00 in0.0 mm 0.10 in2.5 mm
10:50 PM 70.6°F21.4°C 70.6°F21.4°C 100% Calm Calm 1.2 mph1.9 kmh 29.71 in1006.1 mb - 0.01 in0.3 mm 0.11 in2.8 mm
10:55 PM 70.6°F21.4°C 70.6°F21.4°C 100% Calm Calm -- 29.71 in1006.1 mb - 0.00 in0.0 mm 0.11 in2.8 mm
11:00 PM 70.5°F21.4°C 70.5°F21.4°C 100% Calm Calm -- 29.71 in1006.1 mb - 0.02 in0.5 mm 0.13 in3.3 mm
11:05 PM 70.5°F21.4°C 70.5°F21.4°C 100% 1.2 mph ENE1.9 kmh ENE 3.5 mph5.6 kmh 29.71 in1006.1 mb - 0.01 in0.3 mm 0.13 in3.3 mm
11:10 PM 70.5°F21.4°C 70.5°F21.4°C 100% Calm Calm -- 29.70 in1005.8 mb - 0.00 in0.0 mm 0.13 in3.3 mm
11:15 PM 70.4°F21.3°C 70.4°F21.3°C 100% 1.2 mph ENE1.9 kmh ENE 3.5 mph5.6 kmh 29.70 in1005.8 mb - 0.01 in0.3 mm 0.14 in3.6 mm
11:20 PM 70.4°F21.3°C 70.4°F21.3°C 100% Calm Calm 1.2 mph1.9 kmh 29.71 in1006.1 mb - 0.00 in0.0 mm 0.14 in3.6 mm
11:25 PM 70.4°F21.3°C 70.4°F21.3°C 100% Calm Calm -- 29.71 in1006.1 mb - 0.01 in0.3 mm 0.15 in3.8 mm
11:30 PM 70.3°F21.3°C 70.3°F21.3°C 100% Calm Calm -- 29.71 in1006.1 mb - 0.02 in0.5 mm 0.17 in4.3 mm
11:35 PM 70.3°F21.3°C 70.3°F21.3°C 100% Calm Calm -- 29.71 in1006.1 mb - 0.02 in0.5 mm 0.18 in4.6 mm
11:40 PM 70.2°F21.2°C 70.2°F21.2°C 100% 1.2 mph ENE1.9 kmh ENE 3.5 mph5.6 kmh 29.71 in1006.1 mb - 0.03 in0.8 mm 0.21 in5.3 mm
11:45 PM 70.2°F21.2°C 70.2°F21.2°C 100% Calm Calm -- 29.71 in1006.1 mb - 0.01 in0.3 mm 0.22 in5.6 mm
11:50 PM 70.1°F21.2°C 70.1°F21.2°C 100% Calm Calm -- 29.70 in1005.8 mb - 0.00 in0.0 mm 0.22 in5.6 mm
11:55 PM 70.1°F21.2°C 70.1°F21.2°C 100% Calm Calm 3.5 mph5.6 kmh 29.70 in1005.8 mb - 0.00 in0.0 mm 0.22 in5.6 mm